Time;durP1;ratioP1;P1;durP2;ratioP2;P2;SDS_P1;SDS_P2;PMS_P1;PMS_P2;Temp;Humidity;BMP_temperature;BMP_pressure;BME280_temperature;BME280_humidity;BME280_pressure;Samples;Min_cycle;Max_cycle;Signal;HPM_P1;HPM_P2
2021/12/15 00:01:07;;;;;;;24.50;20.10;;;6.60;85.50;;;;;;4953594;28;20423;-84
2021/12/15 00:03:33;;;;;;;32.90;22.63;;;6.60;85.50;;;;;;4953463;29;20413;-84
2021/12/15 00:05:59;;;;;;;26.07;19.03;;;6.60;85.00;;;;;;4953952;29;20505;-85
2021/12/15 00:08:25;;;;;;;29.73;21.90;;;6.60;85.30;;;;;;4954400;28;20546;-84
2021/12/15 00:10:51;;;;;;;23.00;14.87;;;6.50;85.50;;;;;;4954485;29;20294;-84
2021/12/15 00:13:18;;;;;;;29.50;20.40;;;6.60;85.70;;;;;;4956148;28;20276;-84
2021/12/15 00:15:45;;;;;;;29.33;20.07;;;6.60;86.10;;;;;;4953728;29;20434;-84
2021/12/15 00:18:11;;;;;;;26.33;19.43;;;6.60;85.90;;;;;;4953442;29;20419;-85
2021/12/15 00:20:37;;;;;;;28.87;21.00;;;6.60;85.60;;;;;;4953736;28;20822;-84
2021/12/15 00:23:04;;;;;;;24.87;19.77;;;6.50;86.20;;;;;;4953083;29;20416;-86
2021/12/15 00:25:34;;;;;;;28.10;20.50;;;6.60;86.00;;;;;;4953096;29;20422;-84
2021/12/15 00:28:00;;;;;;;26.80;20.93;;;6.60;86.00;;;;;;4953500;29;20406;-85
2021/12/15 00:30:26;;;;;;;26.53;20.07;;;6.60;86.80;;;;;;4953343;28;20430;-85
2021/12/15 00:32:53;;;;;;;32.30;19.77;;;6.70;87.30;;;;;;4952998;29;20179;-85
2021/12/15 00:35:19;;;;;;;29.90;20.47;;;6.60;85.90;;;;;;4953030;28;20426;-85
2021/12/15 00:37:45;;;;;;;29.17;20.37;;;6.60;85.40;;;;;;4953797;28;20462;-85
2021/12/15 00:40:14;;;;;;;28.10;19.47;;;6.50;85.70;;;;;;4952723;28;20919;-84
2021/12/15 00:42:40;;;;;;;25.27;19.90;;;6.60;86.50;;;;;;4952262;28;20687;-84
2021/12/15 00:45:07;;;;;;;24.50;17.57;;;6.60;86.30;;;;;;4952752;28;20450;-85
2021/12/15 00:47:32;;;;;;;27.30;20.60;;;6.60;85.30;;;;;;4952311;28;20603;-84
2021/12/15 00:50:06;;;;;;;27.63;20.03;;;6.60;86.10;;;;;;4952690;29;20538;-85
2021/12/15 00:52:32;;;;;;;25.57;19.97;;;6.50;85.80;;;;;;4953005;28;20539;-86
2021/12/15 00:54:59;;;;;;;25.87;19.50;;;6.60;85.90;;;;;;4952792;28;20426;-86
2021/12/15 00:57:25;;;;;;;27.50;18.80;;;6.60;86.00;;;;;;4952768;29;20480;-85
2021/12/15 00:59:50;;;;;;;27.20;18.80;;;6.50;86.40;;;;;;4952601;29;20923;-86
2021/12/15 01:02:16;;;;;;;26.40;18.07;;;6.50;86.60;;;;;;4952457;29;20236;-85
2021/12/15 01:04:41;;;;;;;25.27;17.90;;;6.50;87.10;;;;;;4952328;29;20182;-86
2021/12/15 01:07:09;;;;;;;21.63;16.47;;;6.50;86.50;;;;;;4952070;29;20179;-86
2021/12/15 01:09:43;;;;;;;22.83;17.60;;;6.50;85.20;;;;;;4952008;29;20180;-85
2021/12/15 01:12:19;;;;;;;24.03;17.20;;;6.60;84.50;;;;;;4952352;29;20424;-85
2021/12/15 01:20:27;;;;;;;20.97;16.93;;;6.60;83.30;;;;;;4953469;29;20422;-85
2021/12/15 01:22:56;;;;;;;25.67;19.60;;;6.60;83.80;;;;;;4953213;29;20410;-86
2021/12/15 01:25:36;;;;;;;23.87;18.03;;;6.60;83.80;;;;;;4955263;29;20442;-86
2021/12/15 01:28:02;;;;;;;25.87;20.70;;;6.50;84.50;;;;;;4957500;28;20497;-84
2021/12/15 01:30:35;;;;;;;20.43;17.40;;;6.60;85.30;;;;;;4956304;28;20411;-86
2021/12/15 01:33:02;;;;;;;27.20;19.07;;;6.60;85.40;;;;;;4956592;28;20998;-85
2021/12/15 01:35:28;;;;;;;21.57;17.20;;;6.60;85.10;;;;;;4957490;29;20411;-86
2021/12/15 01:37:54;;;;;;;24.23;19.33;;;6.70;84.10;;;;;;4956591;29;20480;-87
2021/12/15 01:40:32;;;;;;;23.63;19.10;;;6.70;84.00;;;;;;4955943;29;20418;-85
2021/12/15 01:43:00;;;;;;;24.10;18.00;;;6.60;83.80;;;;;;4955688;28;20193;-86
2021/12/15 01:48:13;;;;;;;18.47;16.40;;;6.60;84.70;;;;;;4957306;29;20437;-85
2021/12/15 01:50:39;;;;;;;18.50;15.27;;;6.70;83.90;;;;;;4955800;29;20788;-85
2021/12/15 01:53:07;;;;;;;20.03;17.07;;;6.60;85.10;;;;;;4955917;28;20431;-84
2021/12/15 01:55:32;;;;;;;21.17;16.57;;;6.60;84.90;;;;;;4956141;28;20424;-85
2021/12/15 01:57:58;;;;;;;17.57;14.47;;;6.60;83.90;;;;;;4955592;28;20419;-85
2021/12/15 02:00:33;;;;;;;18.63;16.03;;;6.50;83.70;;;;;;4955978;29;20520;-85
2021/12/15 02:02:59;;;;;;;20.47;15.90;;;6.50;85.00;;;;;;4955675;29;20175;-85
2021/12/15 02:05:28;;;;;;;17.50;14.90;;;6.50;85.00;;;;;;4955141;29;20425;-84
2021/12/15 02:07:53;;;;;;;18.65;15.57;;;6.50;85.00;;;;;;4954544;28;20416;-84
2021/12/15 02:10:24;;;;;;;18.10;15.80;;;6.50;84.10;;;;;;4955270;29;20231;-85
2021/12/15 02:12:50;;;;;;;19.53;14.63;;;6.50;83.70;;;;;;4956725;28;20195;-86
2021/12/15 02:15:26;;;;;;;18.00;14.03;;;6.50;83.70;;;;;;4955223;28;20445;-84
2021/12/15 02:21:22;;;;;;;18.37;16.17;;;6.40;83.90;;;;;;4956441;29;20426;-84
2021/12/15 02:23:53;;;;;;;21.60;16.70;;;6.50;83.90;;;;;;4955100;29;20420;-85
2021/12/15 02:26:23;;;;;;;23.10;18.30;;;6.60;83.60;;;;;;4956256;29;20419;-84
2021/12/15 02:28:54;;;;;;;20.87;17.30;;;6.50;83.70;;;;;;4955387;29;20494;-84
2021/12/15 02:37:17;;;;;;;24.47;17.77;;;6.50;82.90;;;;;;4947927;29;20982;-86
2021/12/15 02:39:55;;;;;;;21.67;16.67;;;6.60;83.50;;;;;;4954619;29;20418;-85
2021/12/15 02:42:45;;;;;;;20.83;16.20;;;6.50;84.30;;;;;;4954640;28;20529;-84
2021/12/15 02:45:13;;;;;;;22.67;16.80;;;6.60;84.20;;;;;;4954137;28;20436;-85
2021/12/15 02:47:40;;;;;;;21.40;15.90;;;6.50;83.20;;;;;;4953726;28;20412;-85
2021/12/15 02:50:09;;;;;;;19.90;15.97;;;6.60;83.70;;;;;;4954270;28;20427;-83
2021/12/15 02:52:36;;;;;;;23.10;18.23;;;6.60;83.70;;;;;;4955334;29;20930;-85
2021/12/15 02:55:03;;;;;;;22.50;16.03;;;6.60;83.00;;;;;;4953981;29;20422;-85
2021/12/15 02:57:29;;;;;;;20.50;16.33;;;6.60;82.80;;;;;;4954797;29;20550;-85
2021/12/15 03:00:01;;;;;;;20.40;16.47;;;6.60;83.00;;;;;;4953575;29;20498;-85
2021/12/15 03:05:25;;;;;;;21.10;16.50;;;6.60;83.10;;;;;;4955580;29;20398;-84
2021/12/15 03:08:03;;;;;;;21.63;17.57;;;6.50;82.80;;;;;;4954391;29;20465;-84
2021/12/15 03:15:59;;;;;;;18.27;16.07;;;6.70;83.20;;;;;;4954778;29;21149;-86
2021/12/15 03:18:27;;;;;;;20.23;17.67;;;6.60;82.00;;;;;;4953591;28;20510;-85
2021/12/15 03:20:58;;;;;;;17.87;14.83;;;6.70;82.20;;;;;;4953560;29;20429;-84
2021/12/15 03:23:56;;;;;;;19.73;17.60;;;6.70;81.70;;;;;;4953785;28;20466;-85
2021/12/15 03:26:31;;;;;;;22.03;16.87;;;6.70;80.30;;;;;;4953270;28;20812;-85
2021/12/15 03:39:25;;;;;;;17.53;15.57;;;6.70;80.20;;;;;;4954815;29;20419;-87
2021/12/15 03:42:01;;;;;;;12.07;10.73;;;6.70;79.10;;;;;;4953230;29;20464;-86
2021/12/15 03:44:29;;;;;;;15.13;12.40;;;6.70;76.90;;;;;;4953321;28;20417;-87
2021/12/15 03:46:57;;;;;;;8.50;7.60;;;6.80;77.40;;;;;;4952629;28;20478;-88
2021/12/15 03:49:23;;;;;;;5.20;4.70;;;6.80;76.50;;;;;;4952813;29;20488;-85
2021/12/15 03:51:48;;;;;;;4.47;4.17;;;6.80;74.10;;;;;;4952635;29;20906;-84
2021/12/15 03:54:14;;;;;;;3.20;2.90;;;6.70;71.20;;;;;;4952665;29;20470;-87
2021/12/15 03:56:41;;;;;;;3.47;3.03;;;6.70;69.60;;;;;;4952572;29;20273;-85
2021/12/15 03:59:07;;;;;;;2.97;2.77;;;6.80;69.30;;;;;;4952550;29;20658;-84
2021/12/15 04:01:34;;;;;;;6.20;5.60;;;6.70;68.70;;;;;;4952729;29;20435;-85
2021/12/15 04:04:01;;;;;;;6.40;5.80;;;6.70;69.20;;;;;;4954344;28;20470;-87
2021/12/15 04:06:33;;;;;;;11.40;9.37;;;6.80;70.50;;;;;;4953028;29;20988;-86
2021/12/15 04:08:59;;;;;;;15.50;13.82;;;6.80;71.60;;;;;;4952915;29;20424;-86
2021/12/15 04:11:28;;;;;;;14.17;9.43;;;6.80;72.70;;;;;;4952447;29;20178;-87
2021/12/15 04:13:59;;;;;;;9.93;7.60;;;6.90;73.30;;;;;;4952920;28;20799;-87
2021/12/15 04:18:59;;;;;;;5.33;4.83;;;6.90;72.40;;;;;;4955098;29;20398;-86
2021/12/15 04:21:24;;;;;;;3.80;3.50;;;6.80;68.80;;;;;;4953461;28;20419;-86
2021/12/15 04:23:55;;;;;;;3.73;3.43;;;6.80;67.50;;;;;;4953128;29;20417;-87
2021/12/15 04:26:21;;;;;;;4.17;3.77;;;6.80;67.80;;;;;;4953048;28;20418;-86
2021/12/15 04:28:47;;;;;;;6.63;5.93;;;6.80;67.20;;;;;;4953006;29;20961;-86
2021/12/15 04:31:17;;;;;;;11.03;9.70;;;6.80;67.80;;;;;;4953496;29;20427;-87
2021/12/15 04:33:50;;;;;;;13.50;11.40;;;6.80;69.90;;;;;;4953464;29;20438;-87
2021/12/15 04:36:17;;;;;;;15.00;12.67;;;6.90;70.80;;;;;;4953690;28;20462;-86
2021/12/15 04:38:43;;;;;;;14.47;12.90;;;6.90;71.90;;;;;;4953660;29;20419;-86
2021/12/15 04:41:13;;;;;;;16.67;13.33;;;6.90;72.30;;;;;;4953394;29;20453;-86
2021/12/15 04:43:40;;;;;;;14.23;12.83;;;6.90;72.20;;;;;;4953384;29;20442;-87
2021/12/15 04:46:08;;;;;;;15.10;12.57;;;6.90;72.30;;;;;;4953394;29;20415;-87
2021/12/15 04:48:36;;;;;;;14.47;12.33;;;6.90;72.70;;;;;;4953069;29;20441;-86
2021/12/15 04:51:03;;;;;;;14.67;13.03;;;6.90;72.90;;;;;;4953945;29;20534;-87
2021/12/15 04:53:28;;;;;;;12.47;10.77;;;6.90;71.20;;;;;;4954223;29;20509;-88
2021/12/15 04:55:54;;;;;;;11.97;10.60;;;7.00;71.80;;;;;;4953435;29;20457;-85
2021/12/15 04:58:20;;;;;;;12.77;10.67;;;6.90;71.20;;;;;;4953787;28;20184;-86
2021/12/15 05:00:54;;;;;;;9.77;8.50;;;7.00;70.90;;;;;;4953599;28;20184;-86
2021/12/15 05:03:20;;;;;;;9.27;8.30;;;7.00;69.40;;;;;;4954043;28;20411;-86
2021/12/15 05:05:46;;;;;;;9.53;8.60;;;6.90;69.40;;;;;;4953551;29;20564;-87
2021/12/15 05:08:12;;;;;;;9.97;8.70;;;6.90;69.50;;;;;;4953588;29;20454;-86
2021/12/15 05:10:38;;;;;;;8.17;7.37;;;7.00;69.50;;;;;;4953427;29;20179;-86
2021/12/15 05:13:05;;;;;;;6.50;5.80;;;6.90;68.90;;;;;;4953620;28;21037;-87
2021/12/15 05:15:31;;;;;;;7.13;6.43;;;6.90;67.80;;;;;;4953382;29;20423;-86
2021/12/15 05:17:57;;;;;;;8.03;7.23;;;7.00;67.10;;;;;;4953485;29;20513;-88
2021/12/15 05:20:25;;;;;;;7.57;6.90;;;6.90;68.00;;;;;;4952728;28;20839;-83
2021/12/15 05:22:50;;;;;;;7.80;7.10;;;7.00;67.50;;;;;;4953023;29;20175;-86
2021/12/15 05:25:16;;;;;;;7.60;6.90;;;7.00;68.60;;;;;;4953142;29;21135;-87
2021/12/15 05:27:43;;;;;;;7.40;6.80;;;7.00;67.40;;;;;;4952909;29;20538;-88
2021/12/15 05:30:11;;;;;;;8.60;7.70;;;7.00;68.00;;;;;;4953044;29;20473;-86
2021/12/15 05:32:38;;;;;;;6.57;5.97;;;7.00;68.10;;;;;;4954696;28;20422;-85
2021/12/15 05:35:05;;;;;;;7.80;7.00;;;6.90;67.10;;;;;;4954256;28;20787;-87
2021/12/15 05:37:31;;;;;;;7.20;6.60;;;7.00;66.50;;;;;;4953202;29;20470;-85
2021/12/15 05:39:57;;;;;;;7.47;6.87;;;7.00;66.00;;;;;;4952051;29;20469;-87
2021/12/15 05:42:24;;;;;;;7.60;7.00;;;7.00;66.70;;;;;;4952843;29;20242;-85
2021/12/15 05:44:52;;;;;;;8.40;7.70;;;7.00;66.70;;;;;;4953342;28;20415;-86
2021/12/15 05:47:20;;;;;;;7.27;6.53;;;6.90;66.10;;;;;;4952749;29;20911;-88
2021/12/15 05:49:47;;;;;;;7.57;6.93;;;6.90;65.10;;;;;;4952889;29;20433;-86
2021/12/15 05:52:12;;;;;;;6.00;5.50;;;6.90;65.90;;;;;;4952622;29;20421;-83
2021/12/15 05:54:38;;;;;;;7.43;6.83;;;7.00;65.60;;;;;;4952813;29;20480;-87
2021/12/15 05:57:04;;;;;;;6.50;6.00;;;6.90;66.60;;;;;;4952376;29;20970;-87
2021/12/15 05:59:30;;;;;;;6.83;6.23;;;7.00;66.00;;;;;;4952813;29;20187;-88
2021/12/15 06:01:56;;;;;;;5.90;5.40;;;7.00;66.60;;;;;;4953261;29;20459;-86
2021/12/15 06:04:22;;;;;;;4.93;4.50;;;7.00;66.50;;;;;;4953116;29;20177;-85
2021/12/15 06:06:48;;;;;;;5.07;4.67;;;7.00;65.00;;;;;;4952938;28;20799;-83
2021/12/15 06:09:14;;;;;;;6.00;5.50;;;7.00;65.50;;;;;;4952839;29;20180;-84
2021/12/15 06:11:42;;;;;;;8.40;7.60;;;7.00;65.00;;;;;;4955984;28;20429;-85
2021/12/15 06:14:08;;;;;;;6.60;6.00;;;7.00;66.30;;;;;;4956442;28;20179;-87
2021/12/15 06:16:35;;;;;;;5.90;5.43;;;7.00;65.90;;;;;;4956490;29;20471;-83
2021/12/15 06:19:02;;;;;;;7.80;7.10;;;7.00;66.20;;;;;;4956689;29;20436;-85
2021/12/15 06:21:28;;;;;;;7.90;7.20;;;7.00;65.90;;;;;;4956696;29;20422;-83
2021/12/15 06:23:53;;;;;;;7.30;6.60;;;7.00;66.90;;;;;;4956797;28;20423;-87
2021/12/15 06:26:19;;;;;;;9.23;7.47;;;7.00;66.00;;;;;;4956664;28;20196;-84
2021/12/15 06:28:46;;;;;;;8.67;7.87;;;7.00;66.10;;;;;;4964249;28;20185;-84
2021/12/15 06:31:13;;;;;;;7.83;7.13;;;7.00;66.20;;;;;;4970182;28;20951;-83
2021/12/15 06:33:40;;;;;;;7.67;6.70;;;7.00;65.70;;;;;;4957560;28;20454;-86
2021/12/15 06:36:07;;;;;;;8.37;7.67;;;7.00;65.80;;;;;;4956146;29;21223;-87
2021/12/15 06:38:38;;;;;;;8.67;7.87;;;7.10;66.20;;;;;;4956675;29;20425;-88
2021/12/15 06:41:06;;;;;;;9.50;8.63;;;7.00;66.40;;;;;;4956436;29;20414;-87
2021/12/15 06:43:33;;;;;;;11.30;10.30;;;7.00;65.80;;;;;;4962975;28;20884;-86
2021/12/15 06:59:44;;;;;;;10.20;9.30;;;7.10;66.20;;;;;;4975788;28;20404;-84
2021/12/15 07:02:10;;;;;;;9.87;8.90;;;7.00;65.50;;;;;;4975195;28;20784;-86
2021/12/15 07:04:36;;;;;;;10.53;9.43;;;7.10;65.80;;;;;;4975615;28;20269;-86
2021/12/15 07:07:04;;;;;;;9.73;8.83;;;7.10;65.30;;;;;;4975562;28;20845;-87
2021/12/15 07:09:30;;;;;;;11.10;10.00;;;7.20;65.10;;;;;;4975386;28;20560;-86
2021/12/15 07:11:56;;;;;;;10.67;9.67;;;7.20;64.80;;;;;;4975049;28;20428;-86
2021/12/15 07:14:22;;;;;;;11.07;9.97;;;7.20;64.60;;;;;;4975755;28;20421;-86
2021/12/15 07:16:51;;;;;;;9.97;9.07;;;7.20;64.60;;;;;;4974609;28;20256;-84
2021/12/15 07:22:07;;;;;;;11.43;10.23;;;7.10;64.50;;;;;;4974772;28;20467;-88
2021/12/15 07:24:35;;;;;;;11.37;10.27;;;7.10;65.30;;;;;;4974742;28;20480;-84
2021/12/15 07:27:01;;;;;;;11.77;10.67;;;7.10;64.60;;;;;;4974530;28;20452;-83
2021/12/15 07:29:28;;;;;;;14.87;12.13;;;7.10;65.70;;;;;;4973850;28;20422;-83
2021/12/15 07:31:54;;;;;;;15.73;12.30;;;7.10;65.50;;;;;;4974450;28;20422;-86
2021/12/15 07:34:20;;;;;;;14.20;12.83;;;7.10;65.40;;;;;;4974287;28;20428;-87
2021/12/15 07:36:46;;;;;;;13.17;11.87;;;7.10;65.40;;;;;;4974627;28;20567;-86
2021/12/15 07:39:12;;;;;;;14.23;12.83;;;7.10;65.70;;;;;;4974398;28;20175;-86
2021/12/15 07:41:49;;;;;;;15.47;13.80;;;7.10;65.80;;;;;;4974517;28;20429;-86
2021/12/15 07:44:15;;;;;;;15.03;13.53;;;7.00;66.50;;;;;;4974460;28;20429;-86
2021/12/15 07:46:43;;;;;;;14.57;13.07;;;7.00;66.80;;;;;;4974552;28;20463;-86
2021/12/15 07:49:09;;;;;;;13.20;11.80;;;7.00;66.30;;;;;;4974413;28;20901;-83
2021/12/15 07:51:34;;;;;;;14.47;12.70;;;7.00;65.40;;;;;;4974380;28;20461;-86
2021/12/15 07:54:00;;;;;;;14.83;13.33;;;7.00;65.70;;;;;;4974345;28;20208;-85
2021/12/15 07:56:27;;;;;;;13.23;11.83;;;6.90;66.50;;;;;;4956063;28;20206;-86
2021/12/15 07:58:58;;;;;;;13.60;11.70;;;7.00;66.90;;;;;;4974348;28;20202;-85
2021/12/15 08:01:24;;;;;;;12.77;11.30;;;7.00;65.60;;;;;;4970574;28;20426;-83
2021/12/15 08:03:55;;;;;;;11.67;10.30;;;7.00;65.70;;;;;;4957281;28;20934;-83
2021/12/15 08:06:26;;;;;;;12.60;11.13;;;7.00;65.50;;;;;;4954942;28;20250;-84
2021/12/15 08:08:53;;;;;;;10.70;9.70;;;7.00;65.90;;;;;;4957912;28;20421;-84
2021/12/15 08:11:20;;;;;;;12.10;10.80;;;7.00;65.00;;;;;;4973951;28;20909;-84
2021/12/15 08:13:46;;;;;;;11.03;9.93;;;7.00;65.30;;;;;;4960879;28;20764;-85
2021/12/15 08:16:14;;;;;;;11.73;10.60;;;7.00;65.60;;;;;;4954573;29;20461;-84
2021/12/15 08:18:41;;;;;;;10.83;9.73;;;7.00;65.90;;;;;;4971020;28;20791;-84
2021/12/15 08:21:07;;;;;;;10.40;8.87;;;7.00;65.10;;;;;;4955805;28;20415;-84
2021/12/15 08:23:33;;;;;;;14.23;9.10;;;6.90;64.30;;;;;;4954626;29;20426;-83
2021/12/15 08:25:59;;;;;;;10.10;9.13;;;6.90;65.10;;;;;;4955682;29;20421;-84
2021/12/15 08:28:27;;;;;;;10.27;8.93;;;7.00;64.60;;;;;;4954556;29;20233;-84
2021/12/15 08:30:54;;;;;;;9.43;8.53;;;7.00;64.40;;;;;;4954122;29;20494;-84
2021/12/15 08:33:23;;;;;;;9.73;8.80;;;6.90;64.30;;;;;;4960683;28;20526;-84
2021/12/15 08:35:58;;;;;;;8.93;8.00;;;7.00;63.90;;;;;;4960691;28;20423;-84
2021/12/15 08:38:25;;;;;;;7.17;6.47;;;7.00;64.40;;;;;;4954254;29;20438;-84
2021/12/15 08:40:52;;;;;;;8.87;8.07;;;7.00;64.50;;;;;;4973249;28;20433;-84
2021/12/15 08:43:20;;;;;;;7.57;6.87;;;7.00;63.00;;;;;;4973466;28;20607;-84
2021/12/15 08:45:52;;;;;;;7.57;6.80;;;7.00;63.40;;;;;;4973373;28;20621;-84
2021/12/15 08:48:18;;;;;;;10.23;9.00;;;7.00;63.30;;;;;;4973642;28;20421;-83
2021/12/15 08:50:44;;;;;;;9.33;7.90;;;7.00;63.80;;;;;;4973222;28;20428;-83
2021/12/15 08:53:11;;;;;;;8.27;7.47;;;7.00;63.40;;;;;;4973438;28;20516;-84
2021/12/15 08:55:40;;;;;;;7.17;6.57;;;7.00;63.30;;;;;;4973232;28;20426;-84
2021/12/15 08:58:07;;;;;;;9.00;7.17;;;7.10;62.50;;;;;;4973288;28;21036;-84
2021/12/15 09:00:33;;;;;;;7.00;6.40;;;7.00;62.10;;;;;;4973059;28;20418;-83
2021/12/15 09:03:02;;;;;;;7.70;6.90;;;7.10;63.10;;;;;;4973434;28;20420;-84
2021/12/15 09:05:27;;;;;;;6.57;5.97;;;7.00;62.30;;;;;;4972764;28;20414;-84
2021/12/15 09:08:00;;;;;;;5.93;5.30;;;7.00;61.90;;;;;;4972968;28;21005;-83
2021/12/15 09:10:31;;;;;;;5.77;5.27;;;7.00;61.30;;;;;;4972978;28;20658;-83
2021/12/15 09:12:57;;;;;;;5.67;5.17;;;7.10;62.20;;;;;;4973178;28;20429;-83
2021/12/15 09:15:23;;;;;;;7.23;6.53;;;7.10;62.30;;;;;;4972947;28;20479;-84
2021/12/15 09:17:49;;;;;;;5.50;5.00;;;7.00;61.80;;;;;;4972729;28;20547;-83
2021/12/15 09:20:19;;;;;;;5.53;5.03;;;7.00;61.30;;;;;;4972848;28;20506;-84
2021/12/15 09:22:44;;;;;;;7.60;6.90;;;7.00;61.80;;;;;;4955068;28;20182;-84
2021/12/15 09:25:12;;;;;;;7.20;6.33;;;7.00;61.60;;;;;;4953664;29;20421;-83
2021/12/15 09:27:38;;;;;;;7.60;7.00;;;7.00;61.40;;;;;;4953458;29;20212;-83
2021/12/15 09:30:07;;;;;;;7.13;6.30;;;7.10;60.70;;;;;;4953650;29;20423;-85
2021/12/15 09:32:35;;;;;;;7.07;6.37;;;7.10;61.90;;;;;;4953614;29;20476;-84
2021/12/15 09:35:01;;;;;;;6.97;6.30;;;7.10;61.00;;;;;;4953549;29;20429;-84
2021/12/15 09:37:28;;;;;;;8.77;7.30;;;7.10;60.90;;;;;;4953410;29;20466;-84
2021/12/15 09:39:55;;;;;;;7.17;6.33;;;7.10;61.20;;;;;;4953943;29;20421;-84
2021/12/15 09:42:25;;;;;;;7.70;6.60;;;7.10;60.50;;;;;;4953599;29;20999;-84
2021/12/15 09:44:57;;;;;;;8.27;7.47;;;7.10;61.30;;;;;;4953888;28;20420;-84
2021/12/15 09:47:45;;;;;;;9.67;7.17;;;7.10;60.60;;;;;;4957485;29;20421;-84
2021/12/15 10:12:21;;;;;;;6.20;5.30;;;7.00;60.30;;;;;;4958556;29;20397;-86
2021/12/15 10:17:43;;;;;;;6.20;5.60;;;7.00;60.40;;;;;;4978168;28;20471;-87
2021/12/15 10:20:17;;;;;;;7.23;5.73;;;7.00;60.00;;;;;;4976166;28;20429;-87
2021/12/15 10:22:45;;;;;;;6.57;5.97;;;7.00;59.40;;;;;;4976106;28;20410;-84
2021/12/15 10:25:31;;;;;;;6.83;6.20;;;7.10;59.50;;;;;;4975560;28;20511;-83
2021/12/15 10:28:14;;;;;;;13.47;12.37;;;7.10;59.00;;;;;;4975464;28;20425;-84
2021/12/15 10:30:50;;;;;;;7.90;7.20;;;7.00;59.40;;;;;;4975328;28;20548;-84
2021/12/15 10:33:20;;;;;;;6.67;6.07;;;7.00;59.70;;;;;;4963933;28;20429;-83
2021/12/15 10:36:02;;;;;;;7.43;6.70;;;6.90;59.30;;;;;;4956600;28;20490;-83
2021/12/15 10:38:45;;;;;;;7.50;6.77;;;7.00;59.60;;;;;;4956549;28;20492;-84
2021/12/15 10:41:18;;;;;;;8.50;7.70;;;6.90;60.00;;;;;;4956247;29;20415;-85
2021/12/15 10:43:47;;;;;;;11.17;7.67;;;6.90;60.30;;;;;;4957074;29;20435;-87
2021/12/15 10:46:15;;;;;;;8.27;7.57;;;6.80;60.20;;;;;;4957309;29;20440;-85
2021/12/15 10:48:48;;;;;;;10.73;8.63;;;6.80;61.10;;;;;;4956454;29;20415;-85
2021/12/15 10:51:34;;;;;;;8.77;7.90;;;6.80;61.60;;;;;;4956752;29;20756;-84
2021/12/15 10:54:25;;;;;;;7.83;7.17;;;6.80;60.70;;;;;;4957761;29;20490;-84
2021/12/15 10:57:10;;;;;;;8.00;7.30;;;6.80;61.10;;;;;;4959506;28;20499;-84
2021/12/15 10:59:43;;;;;;;9.30;7.90;;;6.80;60.20;;;;;;4956118;29;20415;-84
2021/12/15 11:02:08;;;;;;;9.97;8.80;;;6.80;61.40;;;;;;4956212;29;20562;-84
2021/12/15 11:04:51;;;;;;;9.40;8.50;;;6.80;61.10;;;;;;4956415;29;20462;-84
2021/12/15 11:07:28;;;;;;;10.57;8.00;;;6.80;60.40;;;;;;4959215;28;20226;-84
2021/12/15 11:09:54;;;;;;;9.50;8.60;;;6.80;60.60;;;;;;4966396;28;20429;-84
2021/12/15 11:12:31;;;;;;;8.37;7.57;;;6.90;60.50;;;;;;4974985;28;20475;-84
2021/12/15 11:15:10;;;;;;;9.57;8.47;;;6.90;60.50;;;;;;4975164;28;20653;-85
2021/12/15 11:17:51;;;;;;;8.17;7.53;;;6.90;60.40;;;;;;4974749;28;20817;-84
2021/12/15 11:20:33;;;;;;;10.17;9.23;;;6.90;61.10;;;;;;4976101;28;20410;-85
2021/12/15 11:23:23;;;;;;;9.50;8.50;;;6.90;61.00;;;;;;4974840;28;20498;-85
2021/12/15 11:26:11;;;;;;;8.30;7.60;;;6.90;60.40;;;;;;4974984;28;20414;-85
2021/12/15 11:28:41;;;;;;;8.37;7.60;;;6.90;60.50;;;;;;4974729;28;20413;-85
2021/12/15 11:31:13;;;;;;;9.50;8.60;;;6.90;60.60;;;;;;4974688;28;20505;-85
2021/12/15 11:33:38;;;;;;;8.47;7.57;;;6.90;59.90;;;;;;4966299;28;20453;-85
2021/12/15 11:36:12;;;;;;;8.70;7.90;;;6.90;60.70;;;;;;4955537;29;20461;-86
2021/12/15 11:38:39;;;;;;;7.50;6.80;;;6.90;60.80;;;;;;4955410;29;20178;-85
2021/12/15 11:41:22;;;;;;;9.20;8.40;;;7.00;60.90;;;;;;4955127;28;20426;-86
2021/12/15 11:43:50;;;;;;;9.63;8.83;;;6.90;60.00;;;;;;4966059;28;20451;-85
2021/12/15 11:46:57;;;;;;;9.30;8.33;;;6.90;60.90;;;;;;4974356;28;20515;-85
2021/12/15 11:49:26;;;;;;;7.87;7.17;;;7.00;60.20;;;;;;4974506;28;20776;-85
2021/12/15 11:52:05;;;;;;;8.80;7.97;;;6.90;59.30;;;;;;4974293;28;20410;-85
2021/12/15 11:54:40;;;;;;;8.17;7.47;;;6.90;59.30;;;;;;4974210;28;20525;-84
2021/12/15 11:57:23;;;;;;;7.80;7.20;;;6.90;59.30;;;;;;4974095;28;20504;-85
2021/12/15 11:59:51;;;;;;;9.10;8.20;;;6.90;59.10;;;;;;4974335;28;20949;-85
2021/12/15 12:02:56;;;;;;;8.63;7.83;;;6.90;59.70;;;;;;4973837;28;20420;-85
2021/12/15 12:05:35;;;;;;;7.77;7.17;;;6.90;59.30;;;;;;4974180;28;20418;-85
2021/12/15 12:08:07;;;;;;;9.20;8.40;;;6.90;59.50;;;;;;4973426;28;20410;-86
2021/12/15 12:10:42;;;;;;;8.80;8.10;;;6.80;59.20;;;;;;4973988;28;20175;-86
2021/12/15 12:13:14;;;;;;;8.13;7.33;;;6.80;59.80;;;;;;4963775;28;20476;-86
2021/12/15 12:15:45;;;;;;;9.73;8.83;;;6.80;59.20;;;;;;4967005;28;20423;-86
2021/12/15 12:18:19;;;;;;;9.43;8.63;;;6.80;59.20;;;;;;4954660;28;20459;-86
2021/12/15 12:20:50;;;;;;;10.60;9.70;;;6.80;59.90;;;;;;4954587;29;20486;-86
2021/12/15 12:23:24;;;;;;;12.23;11.03;;;6.80;59.30;;;;;;4961164;28;20995;-85
2021/12/15 12:25:53;;;;;;;11.43;10.33;;;6.80;60.00;;;;;;4973852;28;20438;-85
2021/12/15 12:28:24;;;;;;;12.30;11.20;;;6.80;60.10;;;;;;4973702;28;20945;-85
2021/12/15 12:30:56;;;;;;;23.67;21.17;;;6.80;60.30;;;;;;4973832;28;20414;-85
2021/12/15 12:33:23;;;;;;;12.83;11.63;;;6.80;59.50;;;;;;4973778;28;20421;-85
2021/12/15 12:35:55;;;;;;;8.27;7.60;;;6.80;60.10;;;;;;4974912;28;20418;-85
2021/12/15 12:38:24;;;;;;;9.77;8.87;;;6.80;59.20;;;;;;4973367;28;20977;-84
2021/12/15 12:41:13;;;;;;;8.53;7.80;;;6.80;59.70;;;;;;4973549;28;20411;-84
2021/12/15 12:44:01;;;;;;;8.70;7.77;;;6.80;61.10;;;;;;4973478;28;20476;-85
2021/12/15 12:46:51;;;;;;;9.40;8.60;;;6.80;60.70;;;;;;4973547;28;20414;-85
2021/12/15 13:00:38;;;;;;;9.80;9.00;;;6.80;60.90;;;;;;4975307;28;20414;-86
2021/12/15 13:03:11;;;;;;;14.37;12.90;;;6.80;60.40;;;;;;4973495;28;20422;-86
2021/12/15 13:05:40;;;;;;;11.37;10.23;;;6.80;60.00;;;;;;4975832;28;20425;-86
2021/12/15 13:08:12;;;;;;;10.23;9.40;;;6.80;60.70;;;;;;4977560;28;20445;-86
2021/12/15 13:10:51;;;;;;;9.70;8.80;;;6.90;61.00;;;;;;4958590;28;21021;-85
2021/12/15 13:13:23;;;;;;;8.20;7.50;;;6.90;60.50;;;;;;4970781;28;20417;-85
2021/12/15 13:16:00;;;;;;;8.17;7.57;;;6.90;60.00;;;;;;4970621;28;20411;-85
2021/12/15 13:18:27;;;;;;;8.30;7.70;;;6.90;60.40;;;;;;4970381;28;20417;-85
2021/12/15 13:21:03;;;;;;;9.10;8.27;;;6.90;59.90;;;;;;4972357;28;20417;-85
2021/12/15 13:23:46;;;;;;;8.43;7.70;;;6.80;60.80;;;;;;4974063;28;20428;-85
2021/12/15 13:29:47;;;;;;;8.30;7.60;;;6.90;59.50;;;;;;4959320;29;20476;-84
2021/12/15 13:32:13;;;;;;;8.10;7.50;;;6.80;61.00;;;;;;4940676;29;20802;-85
2021/12/15 13:34:49;;;;;;;9.37;8.60;;;6.80;60.00;;;;;;4958358;29;20421;-85
2021/12/15 13:37:55;;;;;;;9.13;8.33;;;6.80;59.50;;;;;;4973525;28;20994;-84
2021/12/15 13:40:55;;;;;;;9.53;8.73;;;6.70;60.80;;;;;;4954289;28;20962;-84
2021/12/15 13:43:34;;;;;;;9.50;8.80;;;6.70;60.40;;;;;;4958521;28;20419;-84
2021/12/15 13:46:00;;;;;;;9.20;8.50;;;6.70;60.60;;;;;;4973621;28;20423;-84
2021/12/15 13:48:54;;;;;;;9.20;8.43;;;6.70;60.80;;;;;;4973598;28;20425;-83
2021/12/15 13:51:54;;;;;;;9.40;8.70;;;6.70;60.30;;;;;;4973387;28;20183;-84
2021/12/15 13:54:45;;;;;;;9.40;8.70;;;6.70;60.80;;;;;;4958963;29;20466;-86
2021/12/15 13:57:14;;;;;;;8.17;7.47;;;6.70;60.90;;;;;;4972915;28;20552;-85
2021/12/15 13:59:48;;;;;;;8.60;7.83;;;6.70;61.00;;;;;;4973222;28;20783;-84
2021/12/15 14:02:19;;;;;;;10.27;9.30;;;6.70;61.00;;;;;;4958694;28;20407;-84
2021/12/15 14:04:52;;;;;;;9.50;8.70;;;6.70;61.70;;;;;;4973667;28;20415;-86
2021/12/15 14:07:41;;;;;;;9.20;8.40;;;6.70;60.70;;;;;;4990863;28;20425;-86
2021/12/15 14:10:09;;;;;;;8.57;7.87;;;6.70;61.20;;;;;;4976580;28;20762;-85
2021/12/15 14:12:44;;;;;;;8.30;7.40;;;6.70;61.30;;;;;;4976281;28;20429;-88
2021/12/15 14:15:25;;;;;;;7.90;7.27;;;6.70;61.00;;;;;;4975862;28;20424;-87
2021/12/15 14:17:58;;;;;;;8.17;7.47;;;6.70;61.30;;;;;;4975478;28;20504;-87
2021/12/15 14:20:25;;;;;;;7.23;6.70;;;6.70;60.90;;;;;;4975684;28;20772;-87
2021/12/15 14:22:59;;;;;;;8.87;8.10;;;6.60;61.30;;;;;;4976020;28;20425;-87
2021/12/15 14:25:26;;;;;;;9.00;8.20;;;6.70;61.80;;;;;;4976181;28;20422;-87
2021/12/15 14:27:51;;;;;;;8.80;8.10;;;6.70;61.90;;;;;;4976061;28;20440;-85
2021/12/15 14:30:17;;;;;;;8.20;7.60;;;6.80;61.00;;;;;;4976273;28;20421;-86
2021/12/15 14:32:44;;;;;;;7.70;7.03;;;6.80;61.60;;;;;;4991599;28;20418;-86
2021/12/15 14:35:19;;;;;;;8.97;8.20;;;6.80;60.90;;;;;;4976023;28;20426;-87
2021/12/15 14:37:44;;;;;;;7.90;7.20;;;6.80;60.80;;;;;;4975774;28;21124;-87
2021/12/15 14:40:11;;;;;;;8.87;8.10;;;6.70;61.20;;;;;;4976748;28;20496;-87